Time;durP1;ratioP1;P1;durP2;ratioP2;P2;SDS_P1;SDS_P2;PMS_P1;PMS_P2;Temp;Humidity;BMP_temperature;BMP_pressure;BME280_temperature;BME280_humidity;BME280_pressure;Samples;Min_cycle;Max_cycle;Signal;HPM_P1;HPM_P2
2021/11/25 00:00:50;;;;;;;0.70;0.50;;;2.00;99.90;;;;;;5018426;28;20230;-74
2021/11/25 00:03:16;;;;;;;0.80;0.63;;;1.90;99.90;;;;;;5036354;28;20206;-74
2021/11/25 00:05:42;;;;;;;0.90;0.70;;;1.90;99.90;;;;;;5037486;28;20195;-74
2021/11/25 00:08:08;;;;;;;0.70;0.40;;;1.80;99.90;;;;;;5024955;28;20183;-74
2021/11/25 00:10:36;;;;;;;0.70;0.60;;;1.90;99.90;;;;;;5044958;28;20462;-74
2021/11/25 00:13:02;;;;;;;0.93;0.80;;;1.70;99.90;;;;;;5057670;28;20178;-74
2021/11/25 00:15:27;;;;;;;0.70;0.60;;;1.80;99.90;;;;;;5038773;28;20422;-74
2021/11/25 00:17:53;;;;;;;0.73;0.57;;;1.90;99.90;;;;;;5035589;28;20424;-73
2021/11/25 00:20:20;;;;;;;1.03;0.93;;;1.90;99.90;;;;;;5037037;28;20673;-74
2021/11/25 00:22:46;;;;;;;0.70;0.67;;;2.00;99.90;;;;;;5036236;28;20171;-73
2021/11/25 00:25:12;;;;;;;0.83;0.80;;;2.10;99.90;;;;;;5036812;28;20421;-74
2021/11/25 00:27:39;;;;;;;0.70;0.40;;;2.10;99.90;;;;;;5036330;28;20172;-74
2021/11/25 00:30:05;;;;;;;0.70;0.40;;;2.10;99.90;;;;;;5034043;28;20437;-74
2021/11/25 00:32:31;;;;;;;0.70;0.40;;;2.10;99.90;;;;;;5019264;28;20424;-74
2021/11/25 00:34:57;;;;;;;0.70;0.50;;;2.20;99.90;;;;;;5029342;28;20496;-74
2021/11/25 00:37:22;;;;;;;0.70;0.40;;;2.30;99.90;;;;;;5037034;28;20230;-74
2021/11/25 00:39:48;;;;;;;0.70;0.40;;;2.30;99.90;;;;;;5030234;28;20214;-74
2021/11/25 00:42:14;;;;;;;1.70;1.60;;;2.30;99.90;;;;;;5031452;28;20186;-74
2021/11/25 00:44:39;;;;;;;0.70;0.63;;;2.30;99.90;;;;;;5051976;28;20174;-74
2021/11/25 00:47:05;;;;;;;1.57;1.47;;;2.30;99.90;;;;;;5036718;28;20183;-74
2021/11/25 00:49:30;;;;;;;0.70;0.50;;;2.30;99.90;;;;;;5036048;28;20205;-74
2021/11/25 00:51:56;;;;;;;1.43;1.33;;;2.30;99.90;;;;;;5036794;28;20224;-74
2021/11/25 00:54:21;;;;;;;0.70;0.50;;;2.40;99.90;;;;;;5036381;28;20186;-74
2021/11/25 00:56:48;;;;;;;0.80;0.60;;;2.40;99.90;;;;;;5034239;28;20280;-73
2021/11/25 00:59:14;;;;;;;0.70;0.63;;;2.30;99.90;;;;;;5029339;28;20208;-73
2021/11/25 01:01:39;;;;;;;6.00;1.10;;;2.40;99.90;;;;;;5024892;28;20434;-73
2021/11/25 01:04:06;;;;;;;0.70;0.50;;;2.40;99.90;;;;;;5015744;28;20517;-73
2021/11/25 01:06:31;;;;;;;0.80;0.80;;;2.30;99.90;;;;;;5026722;28;20179;-73
2021/11/25 01:08:57;;;;;;;0.70;0.50;;;2.40;99.90;;;;;;5019758;28;20932;-73
2021/11/25 01:11:25;;;;;;;0.70;0.50;;;2.10;99.90;;;;;;5033138;28;20791;-73
2021/11/25 01:13:53;;;;;;;0.70;0.53;;;1.90;99.90;;;;;;5033756;28;20225;-73
2021/11/25 01:16:21;;;;;;;0.70;0.50;;;1.90;99.90;;;;;;5026123;28;20461;-73
2021/11/25 01:18:47;;;;;;;0.70;0.50;;;1.90;99.90;;;;;;5025691;28;20487;-73
2021/11/25 01:21:12;;;;;;;0.70;0.47;;;1.80;99.90;;;;;;5031448;28;20967;-73
2021/11/25 01:23:38;;;;;;;1.43;1.33;;;1.80;99.90;;;;;;5033515;28;20616;-73
2021/11/25 01:26:03;;;;;;;1.20;1.03;;;1.60;99.90;;;;;;5031413;28;20188;-73
2021/11/25 01:28:30;;;;;;;0.70;0.50;;;1.70;99.90;;;;;;5033378;28;20197;-73
2021/11/25 01:30:58;;;;;;;3.17;1.57;;;1.60;99.90;;;;;;5032240;28;20302;-73
2021/11/25 01:33:24;;;;;;;0.90;0.83;;;1.50;99.90;;;;;;5028219;28;20437;-73
2021/11/25 01:35:51;;;;;;;0.70;0.50;;;1.50;99.90;;;;;;5027117;28;20490;-73
2021/11/25 01:38:19;;;;;;;0.90;0.90;;;1.50;99.90;;;;;;5029920;28;20492;-73
2021/11/25 01:40:45;;;;;;;1.23;1.13;;;1.50;99.90;;;;;;5026736;28;20550;-73
2021/11/25 01:43:12;;;;;;;2.03;1.90;;;1.40;99.90;;;;;;5032131;28;20405;-73
2021/11/25 01:45:39;;;;;;;0.70;0.40;;;1.30;99.90;;;;;;5014711;28;20431;-73
2021/11/25 01:48:05;;;;;;;0.70;0.40;;;1.40;99.90;;;;;;5023102;28;20440;-73
2021/11/25 01:50:33;;;;;;;0.70;0.50;;;1.50;99.90;;;;;;5032737;28;20557;-73
2021/11/25 01:52:59;;;;;;;0.70;0.50;;;1.60;99.90;;;;;;5028495;28;20955;-73
2021/11/25 01:55:27;;;;;;;0.70;0.40;;;1.70;99.90;;;;;;5033244;28;20438;-73
2021/11/25 01:57:53;;;;;;;0.70;0.50;;;1.80;99.90;;;;;;5031642;28;20430;-73
2021/11/25 02:00:40;;;;;;;1.90;1.80;;;1.80;99.90;;;;;;5021876;28;20466;-73
2021/11/25 02:03:06;;;;;;;0.70;0.47;;;1.90;99.90;;;;;;5032194;28;20432;-73
2021/11/25 02:05:33;;;;;;;0.80;0.70;;;1.80;99.90;;;;;;5032556;28;20457;-73
2021/11/25 02:07:59;;;;;;;0.70;0.40;;;1.80;99.90;;;;;;5030343;28;20434;-73
2021/11/25 02:10:27;;;;;;;0.73;0.63;;;1.90;99.90;;;;;;5032019;28;21071;-73
2021/11/25 02:12:52;;;;;;;0.70;0.60;;;2.10;99.90;;;;;;5027182;28;20487;-73
2021/11/25 02:15:18;;;;;;;0.70;0.50;;;2.10;99.90;;;;;;5028057;28;20434;-73
2021/11/25 02:17:45;;;;;;;1.23;1.13;;;2.20;99.90;;;;;;5030917;28;20190;-73
2021/11/25 02:20:12;;;;;;;0.70;0.63;;;2.30;99.90;;;;;;5031091;28;20264;-73
2021/11/25 02:22:40;;;;;;;0.70;0.70;;;2.40;99.90;;;;;;5031859;28;20433;-73
2021/11/25 02:25:09;;;;;;;0.87;0.87;;;2.50;99.90;;;;;;5032664;28;20417;-73
2021/11/25 02:27:35;;;;;;;0.70;0.50;;;2.60;99.90;;;;;;5023585;28;20445;-73
2021/11/25 02:30:02;;;;;;;1.63;1.23;;;2.60;99.90;;;;;;5032468;28;20446;-73
2021/11/25 02:32:34;;;;;;;1.67;1.57;;;2.60;99.90;;;;;;5028414;28;20431;-73
2021/11/25 02:35:01;;;;;;;1.60;1.10;;;2.70;99.90;;;;;;5031904;28;20409;-73
2021/11/25 02:37:27;;;;;;;0.70;0.50;;;2.70;99.90;;;;;;5032254;28;20527;-73
2021/11/25 02:39:53;;;;;;;0.80;0.77;;;2.60;99.90;;;;;;5023324;28;20547;-73
2021/11/25 02:42:21;;;;;;;4.43;1.77;;;2.80;99.90;;;;;;5027630;28;20245;-73
2021/11/25 02:44:47;;;;;;;1.17;1.13;;;2.90;99.90;;;;;;5032462;28;20164;-73
2021/11/25 02:47:12;;;;;;;1.10;0.63;;;2.90;99.90;;;;;;5032464;28;20909;-73
2021/11/25 02:49:39;;;;;;;0.80;0.80;;;2.90;99.90;;;;;;5031315;28;20206;-73
2021/11/25 02:52:06;;;;;;;1.07;0.70;;;2.80;99.90;;;;;;5029981;28;20183;-73
2021/11/25 02:54:32;;;;;;;10.80;3.33;;;2.70;99.90;;;;;;5022705;28;20441;-73
2021/11/25 02:56:57;;;;;;;0.70;0.50;;;2.80;99.90;;;;;;5032035;28;20783;-73
2021/11/25 02:59:23;;;;;;;0.80;0.67;;;2.90;99.90;;;;;;5025639;28;20210;-73
2021/11/25 03:01:48;;;;;;;0.70;0.60;;;2.80;99.90;;;;;;5025255;28;20197;-73
2021/11/25 03:04:14;;;;;;;1.73;1.23;;;2.70;99.90;;;;;;5030523;28;20174;-73
2021/11/25 03:06:40;;;;;;;1.73;1.33;;;2.60;99.90;;;;;;5030190;28;20185;-73
2021/11/25 03:09:06;;;;;;;0.73;0.57;;;2.70;99.90;;;;;;5031385;28;20218;-73
2021/11/25 03:11:33;;;;;;;0.97;0.77;;;2.70;99.90;;;;;;5032158;28;20226;-73
2021/11/25 03:14:04;;;;;;;0.93;0.93;;;2.60;99.90;;;;;;5030563;28;20552;-73
2021/11/25 03:16:31;;;;;;;1.33;1.23;;;2.80;99.90;;;;;;5030455;28;20433;-73
2021/11/25 03:18:57;;;;;;;1.33;1.23;;;2.90;99.90;;;;;;5032016;28;20406;-73
2021/11/25 03:21:23;;;;;;;1.03;1.03;;;2.90;99.90;;;;;;5030844;28;20464;-73
2021/11/25 03:23:51;;;;;;;0.70;0.50;;;2.90;99.90;;;;;;5030291;28;20190;-73
2021/11/25 03:26:19;;;;;;;0.70;0.50;;;3.00;99.90;;;;;;5031139;28;20588;-73
2021/11/25 03:28:45;;;;;;;0.90;0.70;;;3.10;99.90;;;;;;5030622;28;20945;-73
2021/11/25 03:31:18;;;;;;;1.83;1.73;;;3.10;99.90;;;;;;5026544;28;20465;-73
2021/11/25 03:33:44;;;;;;;0.70;0.50;;;3.10;99.90;;;;;;5031380;28;20438;-73
2021/11/25 03:36:10;;;;;;;0.70;0.50;;;3.10;99.90;;;;;;5024397;28;20799;-73
2021/11/25 03:38:37;;;;;;;1.80;1.70;;;3.20;99.90;;;;;;5027803;28;20189;-73
2021/11/25 03:41:04;;;;;;;2.70;0.73;;;3.20;99.90;;;;;;5030702;28;20555;-73
2021/11/25 03:43:30;;;;;;;0.70;0.60;;;3.20;99.90;;;;;;5013670;28;20533;-73
2021/11/25 03:45:56;;;;;;;0.80;0.60;;;3.20;99.90;;;;;;5012804;28;20489;-73
2021/11/25 03:48:24;;;;;;;0.93;0.90;;;3.00;99.90;;;;;;5030523;28;20177;-73
2021/11/25 03:50:50;;;;;;;0.70;0.40;;;3.00;99.90;;;;;;5022597;28;20474;-73
2021/11/25 03:53:16;;;;;;;0.87;0.80;;;3.00;99.90;;;;;;5020972;28;20442;-73
2021/11/25 03:55:42;;;;;;;0.70;0.50;;;3.10;99.90;;;;;;5025364;28;20449;-73
2021/11/25 03:58:08;;;;;;;0.90;0.90;;;3.20;99.90;;;;;;5013599;28;20538;-73
2021/11/25 04:00:34;;;;;;;0.70;0.50;;;3.20;99.90;;;;;;5014265;28;20211;-73
2021/11/25 04:03:01;;;;;;;1.07;0.97;;;3.20;99.90;;;;;;5030292;28;20437;-74
2021/11/25 04:05:27;;;;;;;1.10;0.77;;;3.20;99.90;;;;;;5018806;28;20426;-73
2021/11/25 04:07:52;;;;;;;0.80;0.80;;;3.30;99.90;;;;;;5030992;28;20499;-73
2021/11/25 04:10:18;;;;;;;0.70;0.60;;;3.30;99.90;;;;;;5024107;28;20278;-73
2021/11/25 04:12:44;;;;;;;0.70;0.60;;;3.20;99.90;;;;;;5031646;28;20178;-73
2021/11/25 04:15:11;;;;;;;0.70;0.60;;;3.20;99.90;;;;;;5030880;28;20305;-73
2021/11/25 04:17:36;;;;;;;1.57;0.80;;;3.30;99.90;;;;;;5030588;28;20438;-73
2021/11/25 04:20:03;;;;;;;2.70;1.00;;;3.30;99.90;;;;;;5030211;28;20496;-73
2021/11/25 04:22:29;;;;;;;1.43;1.33;;;3.20;99.90;;;;;;5029660;28;20183;-73
2021/11/25 04:24:56;;;;;;;2.10;2.00;;;3.20;99.90;;;;;;5031187;28;20430;-74
2021/11/25 04:27:22;;;;;;;0.70;0.43;;;3.20;99.90;;;;;;5025313;28;20173;-73
2021/11/25 04:30:00;;;;;;;0.70;0.50;;;3.30;99.90;;;;;;5035074;28;20947;-73
2021/11/25 04:35:32;;;;;;;0.73;0.57;;;3.50;99.90;;;;;;5020025;28;20450;-73
2021/11/25 04:38:02;;;;;;;0.70;0.50;;;3.40;99.90;;;;;;5038718;28;20935;-73
2021/11/25 04:40:34;;;;;;;0.80;0.70;;;3.30;99.90;;;;;;5034964;28;20464;-73
2021/11/25 04:42:59;;;;;;;1.77;0.90;;;3.40;99.90;;;;;;5029480;28;20939;-73
2021/11/25 04:45:25;;;;;;;0.70;0.50;;;3.30;99.90;;;;;;5015075;28;20423;-73
2021/11/25 04:47:50;;;;;;;0.77;0.60;;;3.40;99.90;;;;;;5030648;28;20186;-73
2021/11/25 04:50:17;;;;;;;0.70;0.60;;;3.40;99.90;;;;;;5033443;28;20297;-74
2021/11/25 04:52:43;;;;;;;0.70;0.50;;;3.50;99.90;;;;;;5033610;28;20183;-73
2021/11/25 04:55:09;;;;;;;0.70;0.50;;;3.60;99.90;;;;;;5027943;28;20438;-73
2021/11/25 04:57:35;;;;;;;0.70;0.50;;;3.60;99.90;;;;;;5014792;28;20188;-73
2021/11/25 05:00:01;;;;;;;1.00;0.60;;;3.70;99.90;;;;;;5016167;28;20978;-74
2021/11/25 05:02:26;;;;;;;0.70;0.50;;;3.70;99.90;;;;;;5033124;28;20211;-73
2021/11/25 05:04:52;;;;;;;0.70;0.50;;;3.50;99.90;;;;;;5034282;28;20491;-73
2021/11/25 05:07:17;;;;;;;0.70;0.50;;;3.50;99.90;;;;;;5026821;28;20179;-73
2021/11/25 05:09:43;;;;;;;4.73;2.50;;;3.40;99.90;;;;;;5024934;28;20207;-73
2021/11/25 05:12:09;;;;;;;2.50;1.43;;;3.40;99.90;;;;;;5029879;28;20171;-73
2021/11/25 05:14:34;;;;;;;0.70;0.60;;;3.40;99.90;;;;;;5031894;28;20179;-73
2021/11/25 05:17:00;;;;;;;1.13;0.80;;;3.40;99.90;;;;;;5032943;28;20184;-73
2021/11/25 05:19:25;;;;;;;6.50;2.10;;;3.50;99.90;;;;;;5031465;28;20257;-74
2021/11/25 05:21:51;;;;;;;0.80;0.70;;;3.40;99.90;;;;;;5032070;28;20181;-73
2021/11/25 05:24:18;;;;;;;1.10;1.00;;;3.40;99.90;;;;;;5031384;28;20633;-73
2021/11/25 05:26:44;;;;;;;0.70;0.60;;;3.40;99.90;;;;;;5033834;28;20190;-73
2021/11/25 05:29:10;;;;;;;0.73;0.70;;;3.50;99.90;;;;;;5019193;28;20423;-73
2021/11/25 05:31:35;;;;;;;0.70;0.70;;;3.50;99.90;;;;;;5024569;28;20464;-73
2021/11/25 05:34:01;;;;;;;1.43;1.33;;;3.60;99.90;;;;;;5032182;28;20183;-73
2021/11/25 05:36:26;;;;;;;0.70;0.50;;;3.60;99.90;;;;;;5025689;28;20182;-73
2021/11/25 05:38:52;;;;;;;3.03;1.00;;;3.60;99.90;;;;;;5033167;28;20240;-73
2021/11/25 05:41:18;;;;;;;0.80;0.80;;;3.60;99.90;;;;;;5026152;28;20215;-73
2021/11/25 05:43:43;;;;;;;0.70;0.50;;;3.60;99.90;;;;;;5012930;28;20704;-73
2021/11/25 05:46:09;;;;;;;0.80;0.70;;;3.60;99.90;;;;;;5013724;28;20223;-73
2021/11/25 05:48:34;;;;;;;1.20;1.10;;;3.70;99.90;;;;;;5014121;28;20647;-73
2021/11/25 05:51:00;;;;;;;0.70;0.50;;;3.70;99.90;;;;;;5013787;28;20278;-73
2021/11/25 05:53:25;;;;;;;0.70;0.40;;;3.60;99.90;;;;;;5031164;28;20259;-73
2021/11/25 05:55:51;;;;;;;0.70;0.60;;;3.70;99.90;;;;;;5033254;28;20314;-73
2021/11/25 05:58:17;;;;;;;0.70;0.50;;;3.70;99.90;;;;;;5031245;28;20187;-73
2021/11/25 06:00:43;;;;;;;0.70;0.47;;;3.70;99.90;;;;;;5029275;28;20211;-73
2021/11/25 06:03:09;;;;;;;1.73;0.83;;;3.70;99.90;;;;;;5032826;28;20184;-73
2021/11/25 06:05:35;;;;;;;3.03;0.90;;;3.60;99.90;;;;;;5029599;28;20532;-73
2021/11/25 06:08:02;;;;;;;1.13;1.07;;;3.60;99.90;;;;;;5031496;28;20839;-73
2021/11/25 06:10:29;;;;;;;0.70;0.50;;;3.70;99.90;;;;;;5019045;28;20208;-73
2021/11/25 06:12:55;;;;;;;2.30;1.50;;;3.70;99.90;;;;;;5022252;28;20536;-73
2021/11/25 06:15:22;;;;;;;0.93;0.83;;;3.80;99.90;;;;;;5032334;28;20843;-73
2021/11/25 06:17:49;;;;;;;1.50;1.40;;;3.70;99.90;;;;;;5032196;28;20472;-73
2021/11/25 06:20:17;;;;;;;0.80;0.60;;;3.70;99.90;;;;;;5031022;28;20473;-73
2021/11/25 06:22:49;;;;;;;1.33;1.10;;;3.60;99.90;;;;;;5031851;28;20532;-73
2021/11/25 06:25:17;;;;;;;1.63;1.40;;;3.60;99.90;;;;;;5032798;28;20408;-73
2021/11/25 06:27:43;;;;;;;0.70;0.50;;;3.50;99.90;;;;;;5032452;28;20438;-73
2021/11/25 06:30:10;;;;;;;0.80;0.80;;;3.60;99.90;;;;;;5031125;28;20541;-73
2021/11/25 06:32:37;;;;;;;0.70;0.60;;;3.40;99.90;;;;;;5015357;28;20449;-73
2021/11/25 06:35:09;;;;;;;1.00;1.00;;;3.40;99.90;;;;;;5025466;28;20441;-73
2021/11/25 06:37:35;;;;;;;2.60;1.00;;;3.50;99.90;;;;;;5024411;28;20441;-74
2021/11/25 06:40:01;;;;;;;1.03;0.93;;;3.40;99.90;;;;;;5031035;28;21519;-73
2021/11/25 06:42:26;;;;;;;1.63;1.30;;;3.30;99.90;;;;;;5017561;28;20518;-74
2021/11/25 06:44:52;;;;;;;0.70;0.63;;;3.30;99.90;;;;;;5047497;28;20178;-73
2021/11/25 06:47:17;;;;;;;2.87;0.90;;;3.30;99.90;;;;;;5031878;28;20179;-73
2021/11/25 06:49:43;;;;;;;0.70;0.50;;;3.40;99.90;;;;;;5030473;28;20202;-73
2021/11/25 06:52:09;;;;;;;0.70;0.50;;;3.30;99.90;;;;;;5032033;28;20961;-73
2021/11/25 06:54:34;;;;;;;1.50;1.40;;;3.20;99.90;;;;;;5032420;28;20656;-73
2021/11/25 06:57:00;;;;;;;4.20;1.80;;;3.20;99.90;;;;;;5030920;28;20187;-73
2021/11/25 06:59:25;;;;;;;0.80;0.70;;;3.10;99.90;;;;;;5025075;28;20703;-74
2021/11/25 07:01:51;;;;;;;1.40;1.07;;;3.00;99.90;;;;;;5025100;28;20182;-73
2021/11/25 07:04:17;;;;;;;1.07;0.80;;;2.80;99.90;;;;;;5012138;28;20175;-73
2021/11/25 07:06:44;;;;;;;13.83;2.60;;;2.60;99.90;;;;;;5023529;28;20258;-73
2021/11/25 07:09:10;;;;;;;0.70;0.40;;;2.60;99.90;;;;;;5031377;28;20519;-73
2021/11/25 07:11:35;;;;;;;0.70;0.50;;;2.50;99.90;;;;;;5030326;28;20418;-73
2021/11/25 07:14:02;;;;;;;0.70;0.60;;;2.50;99.90;;;;;;5012546;28;20432;-73
2021/11/25 07:16:27;;;;;;;0.70;0.50;;;2.50;99.90;;;;;;5029829;28;20259;-74
2021/11/25 07:18:53;;;;;;;0.70;0.50;;;2.50;99.90;;;;;;5034049;28;20441;-74
2021/11/25 07:21:19;;;;;;;0.70;0.50;;;2.50;99.90;;;;;;5028070;28;20545;-72
2021/11/25 07:23:44;;;;;;;2.90;0.97;;;2.30;99.90;;;;;;5032080;28;20164;-73
2021/11/25 07:26:10;;;;;;;0.70;0.50;;;2.20;99.90;;;;;;5029052;28;20182;-73
2021/11/25 07:28:35;;;;;;;1.37;1.10;;;2.30;99.90;;;;;;5031448;28;20626;-73
2021/11/25 07:31:01;;;;;;;1.20;1.10;;;2.20;99.90;;;;;;5030655;28;20260;-73
2021/11/25 07:33:27;;;;;;;6.20;2.40;;;2.30;99.90;;;;;;5031848;28;20173;-72
2021/11/25 07:35:52;;;;;;;0.70;0.50;;;2.40;99.90;;;;;;5030060;28;20561;-73
2021/11/25 07:38:18;;;;;;;0.70;0.70;;;2.40;99.90;;;;;;5030593;28;20314;-74
2021/11/25 07:40:44;;;;;;;1.73;1.63;;;2.40;99.90;;;;;;5032006;28;20209;-73
2021/11/25 07:43:11;;;;;;;0.70;0.50;;;2.50;99.90;;;;;;5032370;28;20163;-74
2021/11/25 07:45:37;;;;;;;1.17;0.93;;;2.60;99.90;;;;;;5031316;28;20440;-74
2021/11/25 07:48:03;;;;;;;1.00;0.87;;;2.50;99.90;;;;;;5032947;28;20422;-74
2021/11/25 07:50:29;;;;;;;0.80;0.70;;;2.50;99.90;;;;;;5031404;28;20202;-73
2021/11/25 07:52:56;;;;;;;1.17;1.10;;;3.00;99.90;;;;;;5048054;28;20957;-73
2021/11/25 07:55:23;;;;;;;0.70;0.70;;;3.50;99.90;;;;;;5031820;28;20175;-74
2021/11/25 07:57:49;;;;;;;1.13;1.03;;;3.90;99.90;;;;;;5031705;28;20449;-74
2021/11/25 08:00:17;;;;;;;0.97;0.87;;;4.20;99.90;;;;;;5021104;28;21029;-74
2021/11/25 08:02:43;;;;;;;2.70;1.73;;;4.60;99.90;;;;;;5036551;28;21011;-74
2021/11/25 08:05:10;;;;;;;0.80;0.70;;;5.10;99.90;;;;;;5036584;28;20438;-74
2021/11/25 08:07:37;;;;;;;0.80;0.80;;;5.60;99.90;;;;;;5036078;28;20413;-74
2021/11/25 08:10:09;;;;;;;0.70;0.50;;;6.00;99.90;;;;;;5037089;28;20484;-74
2021/11/25 08:12:35;;;;;;;2.60;1.60;;;6.60;99.90;;;;;;5035901;28;20430;-74
2021/11/25 08:15:00;;;;;;;3.83;3.50;;;7.30;99.90;;;;;;5017949;28;20481;-74
2021/11/25 08:17:26;;;;;;;1.17;0.93;;;7.70;99.90;;;;;;5035268;28;20612;-74
2021/11/25 08:19:51;;;;;;;1.80;0.80;;;8.00;99.90;;;;;;5035237;28;20210;-74
2021/11/25 08:22:17;;;;;;;1.10;1.00;;;8.40;99.90;;;;;;5033845;28;20176;-74
2021/11/25 08:24:43;;;;;;;4.20;1.80;;;8.60;99.90;;;;;;5032153;28;20176;-74
2021/11/25 08:27:10;;;;;;;2.30;1.73;;;8.70;99.90;;;;;;5033857;28;20184;-75
2021/11/25 08:29:36;;;;;;;2.77;1.40;;;8.60;99.90;;;;;;5037749;28;20509;-74
2021/11/25 08:32:02;;;;;;;1.70;1.60;;;8.70;99.90;;;;;;5036255;28;20480;-74
2021/11/25 08:34:29;;;;;;;2.27;2.17;;;9.00;99.90;;;;;;5035644;28;21018;-74
2021/11/25 08:36:55;;;;;;;0.97;0.90;;;9.30;99.90;;;;;;5035539;28;20473;-74
2021/11/25 08:39:21;;;;;;;1.23;1.13;;;9.50;99.90;;;;;;5035682;28;21012;-75
2021/11/25 08:41:47;;;;;;;1.57;1.07;;;10.10;99.90;;;;;;5036543;28;20406;-75
2021/11/25 08:44:12;;;;;;;1.23;1.13;;;10.40;99.90;;;;;;5036595;28;20433;-74
2021/11/25 08:46:38;;;;;;;4.07;1.57;;;10.70;99.90;;;;;;5035712;28;20555;-75
2021/11/25 08:49:04;;;;;;;2.57;2.17;;;11.10;99.90;;;;;;5028196;28;20176;-75
2021/11/25 08:51:30;;;;;;;2.40;1.00;;;11.40;99.90;;;;;;5017898;28;20195;-75
2021/11/25 08:53:57;;;;;;;5.17;2.30;;;12.00;99.90;;;;;;5032545;28;20434;-75
2021/11/25 08:56:23;;;;;;;8.77;7.80;;;12.50;99.90;;;;;;5035669;28;20450;-75
2021/11/25 08:58:50;;;;;;;3.90;2.00;;;12.70;99.90;;;;;;5022098;28;20473;-75
2021/11/25 09:01:17;;;;;;;3.90;3.50;;;12.60;99.90;;;;;;5035152;28;20207;-74
2021/11/25 09:03:42;;;;;;;1.70;1.60;;;12.70;99.90;;;;;;5023468;28;20979;-74
2021/11/25 09:06:08;;;;;;;2.90;2.70;;;12.30;99.90;;;;;;5043959;28;20457;-74
2021/11/25 09:08:33;;;;;;;4.13;2.87;;;12.90;99.90;;;;;;5027971;28;20250;-74
2021/11/25 09:10:59;;;;;;;2.67;2.47;;;13.20;99.90;;;;;;5037399;28;20191;-72
2021/11/25 09:13:24;;;;;;;2.97;2.70;;;12.90;99.70;;;;;;5024636;28;20694;-74
2021/11/25 09:15:50;;;;;;;3.13;2.27;;;12.70;99.90;;;;;;5024551;28;20653;-73
2021/11/25 09:18:16;;;;;;;2.13;1.20;;;12.30;99.40;;;;;;5024690;28;20259;-73
2021/11/25 09:20:43;;;;;;;5.17;2.27;;;12.00;99.80;;;;;;5023376;28;20678;-73
2021/11/25 09:23:12;;;;;;;5.40;2.07;;;12.00;99.90;;;;;;5024332;28;20176;-73
2021/11/25 09:25:44;;;;;;;2.50;2.30;;;12.70;99.90;;;;;;5038305;28;20899;-73
2021/11/25 09:28:15;;;;;;;1.20;1.00;;;12.70;99.90;;;;;;5023260;28;20820;-73
2021/11/25 09:30:42;;;;;;;2.67;1.23;;;13.20;99.90;;;;;;5026321;28;21333;-73
2021/11/25 09:33:10;;;;;;;2.50;1.73;;;13.40;97.50;;;;;;5022679;28;20407;-73
2021/11/25 09:35:35;;;;;;;2.07;1.97;;;13.80;96.90;;;;;;5023669;28;20434;-73
2021/11/25 09:38:01;;;;;;;2.37;2.00;;;13.70;95.30;;;;;;5026108;28;20438;-73
2021/11/25 09:40:27;;;;;;;2.03;1.83;;;14.00;95.00;;;;;;5022831;28;20327;-73
2021/11/25 09:42:58;;;;;;;3.13;2.87;;;15.10;94.40;;;;;;5024340;28;20318;-73
2021/11/25 09:45:25;;;;;;;3.93;3.53;;;14.70;90.50;;;;;;5024787;28;20517;-73
2021/11/25 09:47:54;;;;;;;3.10;1.20;;;14.50;90.30;;;;;;5023069;28;20561;-73
2021/11/25 09:50:21;;;;;;;2.30;1.57;;;14.10;90.70;;;;;;5025750;28;20540;-73
2021/11/25 09:52:50;;;;;;;2.03;1.53;;;13.90;91.80;;;;;;5023428;28;20450;-73
2021/11/25 09:55:15;;;;;;;3.43;2.10;;;14.10;91.80;;;;;;5022523;28;20430;-73
2021/11/25 09:57:41;;;;;;;2.50;1.77;;;13.50;92.40;;;;;;5024357;28;20477;-73
2021/11/25 10:00:08;;;;;;;2.37;2.17;;;13.10;93.90;;;;;;5021290;28;20562;-73
2021/11/25 10:02:34;;;;;;;3.00;1.97;;;12.80;94.30;;;;;;5022705;28;20176;-73
2021/11/25 10:04:59;;;;;;;4.27;2.13;;;12.20;95.10;;;;;;5023660;28;20465;-72
2021/11/25 10:07:30;;;;;;;1.97;1.67;;;11.40;96.80;;;;;;5029870;28;20175;-72
2021/11/25 10:09:56;;;;;;;1.93;1.80;;;11.10;99.90;;;;;;5013447;28;20198;-73
2021/11/25 10:12:36;;;;;;;3.17;2.60;;;10.90;99.90;;;;;;5020520;28;20435;-74
2021/11/25 10:15:39;;;;;;;2.30;2.20;;;10.30;99.90;;;;;;5030498;28;20444;-73
2021/11/25 10:18:12;;;;;;;3.07;2.87;;;10.10;99.90;;;;;;5013385;28;20423;-73
2021/11/25 10:20:48;;;;;;;1.20;0.87;;;10.00;99.90;;;;;;5019362;28;21002;-73
2021/11/25 10:23:28;;;;;;;9.50;1.43;;;9.30;99.90;;;;;;5028896;28;20434;-73
2021/11/25 10:26:04;;;;;;;1.10;1.00;;;9.10;99.90;;;;;;5032812;28;20431;-74
2021/11/25 10:28:56;;;;;;;0.77;0.63;;;9.50;99.90;;;;;;5029230;28;20939;-74
2021/11/25 10:31:31;;;;;;;1.27;1.17;;;9.60;99.90;;;;;;5032886;28;20426;-74
2021/11/25 10:34:12;;;;;;;1.63;1.03;;;9.60;99.90;;;;;;5022344;28;20469;-73
2021/11/25 10:36:53;;;;;;;1.17;1.07;;;9.70;99.90;;;;;;5028979;28;20487;-74
2021/11/25 10:41:53;;;;;;;3.17;1.87;;;9.70;99.90;;;;;;5023150;28;20776;-76
2021/11/25 10:44:31;;;;;;;1.60;1.50;;;9.70;99.90;;;;;;5033068;28;20414;-76
2021/11/25 10:47:07;;;;;;;2.07;1.97;;;10.20;99.90;;;;;;5033821;28;20754;-74
2021/11/25 10:49:36;;;;;;;1.63;1.47;;;10.60;99.90;;;;;;5032095;28;20436;-74
2021/11/25 10:52:12;;;;;;;3.13;1.00;;;10.50;99.90;;;;;;5027200;28;20813;-75
2021/11/25 10:54:45;;;;;;;2.30;2.10;;;10.50;99.90;;;;;;5013279;28;20553;-74
2021/11/25 10:57:11;;;;;;;1.97;1.87;;;10.40;99.90;;;;;;5012488;28;20455;-75
2021/11/25 10:59:43;;;;;;;6.33;1.37;;;10.10;99.90;;;;;;5019056;28;20521;-75
2021/11/25 11:02:31;;;;;;;0.80;0.60;;;10.00;99.90;;;;;;5031982;28;20566;-75
2021/11/25 11:04:59;;;;;;;1.30;1.20;;;9.90;99.90;;;;;;5013441;28;20423;-75
2021/11/25 11:07:30;;;;;;;1.43;1.33;;;9.20;99.90;;;;;;5027179;28;20430;-75
2021/11/25 11:09:58;;;;;;;1.30;1.20;;;8.80;99.90;;;;;;5021414;28;20450;-75
2021/11/25 11:12:34;;;;;;;0.90;0.90;;;8.50;99.90;;;;;;5034180;28;20434;-75
2021/11/25 11:15:26;;;;;;;0.83;0.83;;;8.80;99.90;;;;;;5022325;28;20405;-75
2021/11/25 11:20:30;;;;;;;4.10;1.50;;;8.00;99.90;;;;;;5023664;28;20471;-75
2021/11/25 11:22:59;;;;;;;1.07;0.97;;;7.70;99.90;;;;;;5020899;28;21339;-75
2021/11/25 11:25:26;;;;;;;0.77;0.70;;;7.40;99.90;;;;;;5018385;28;20425;-75
2021/11/25 11:27:54;;;;;;;2.70;2.20;;;7.20;99.90;;;;;;5022653;28;20433;-75
2021/11/25 11:30:21;;;;;;;0.70;0.50;;;6.90;99.90;;;;;;5024298;28;20484;-74
2021/11/25 11:32:47;;;;;;;1.40;1.30;;;6.80;99.90;;;;;;5022407;28;20464;-74
2021/11/25 11:35:14;;;;;;;1.17;1.07;;;6.80;99.90;;;;;;5035882;28;20982;-75
2021/11/25 11:37:41;;;;;;;1.23;1.13;;;6.70;99.90;;;;;;5024448;28;20230;-75
2021/11/25 11:40:08;;;;;;;2.70;1.03;;;6.50;99.90;;;;;;5019552;28;20478;-75
2021/11/25 11:42:36;;;;;;;3.63;3.33;;;6.50;99.90;;;;;;5020900;28;20419;-75
2021/11/25 11:45:03;;;;;;;0.70;0.60;;;6.40;99.90;;;;;;5022473;28;20774;-74
2021/11/25 11:47:29;;;;;;;4.03;1.50;;;6.50;99.90;;;;;;5021020;28;20399;-75
2021/11/25 11:50:07;;;;;;;9.27;1.27;;;6.50;99.90;;;;;;5020392;28;20442;-75
2021/11/25 11:52:33;;;;;;;1.73;1.63;;;6.50;99.90;;;;;;5020507;28;20436;-76
2021/11/25 11:55:00;;;;;;;4.03;1.37;;;6.60;99.90;;;;;;5022060;28;20853;-75
2021/11/25 11:57:39;;;;;;;3.47;2.13;;;6.70;99.90;;;;;;5023188;28;20187;-75
2021/11/25 12:00:20;;;;;;;1.63;1.53;;;6.70;99.90;;;;;;5020965;28;21017;-75
2021/11/25 12:02:51;;;;;;;2.60;1.67;;;6.80;99.90;;;;;;5039978;28;20413;-75
2021/11/25 12:05:38;;;;;;;1.93;1.83;;;7.00;99.90;;;;;;5039188;28;20974;-75
2021/11/25 12:08:19;;;;;;;0.90;0.90;;;7.10;99.90;;;;;;5041720;28;20453;-75
2021/11/25 12:11:05;;;;;;;1.00;0.70;;;7.30;99.90;;;;;;5021529;28;20781;-75
2021/11/25 12:13:40;;;;;;;0.93;0.83;;;7.50;99.90;;;;;;5021139;28;20776;-75
2021/11/25 12:16:18;;;;;;;1.47;1.37;;;7.50;99.90;;;;;;5022228;28;20426;-75
2021/11/25 12:18:54;;;;;;;0.70;0.50;;;7.90;99.90;;;;;;5019659;28;20546;-74
2021/11/25 12:21:46;;;;;;;4.53;1.53;;;10.00;99.90;;;;;;5025008;28;20465;-75
2021/11/25 12:24:15;;;;;;;1.17;1.07;;;11.80;99.90;;;;;;5024007;28;20791;-75
2021/11/25 12:27:11;;;;;;;1.83;1.73;;;12.60;99.90;;;;;;5020999;28;20426;-75
2021/11/25 12:29:39;;;;;;;1.63;1.53;;;12.50;99.90;;;;;;5019708;28;20825;-75
2021/11/25 12:35:26;;;;;;;2.57;1.40;;;11.10;99.90;;;;;;5022832;28;20839;-74
2021/11/25 12:38:11;;;;;;;4.87;2.00;;;11.00;99.90;;;;;;5029623;28;20461;-74
2021/11/25 12:40:44;;;;;;;2.00;1.47;;;11.40;99.90;;;;;;5032825;28;20465;-75
2021/11/25 12:43:14;;;;;;;1.80;1.13;;;11.30;99.90;;;;;;5025195;28;20433;-75
2021/11/25 12:45:44;;;;;;;1.73;0.80;;;10.70;99.90;;;;;;5022520;28;20499;-74
2021/11/25 12:48:15;;;;;;;0.97;0.87;;;10.20;99.90;;;;;;5030255;28;20427;-75
2021/11/25 12:50:51;;;;;;;2.60;1.53;;;9.90;99.90;;;;;;5025534;28;20465;-75
2021/11/25 12:53:33;;;;;;;3.50;3.20;;;9.70;99.90;;;;;;5021104;28;20444;-75
2021/11/25 12:56:19;;;;;;;1.33;1.17;;;9.30;99.90;;;;;;5037066;28;20518;-75
2021/11/25 12:58:52;;;;;;;1.43;1.27;;;9.10;99.90;;;;;;5023158;28;20410;-74
2021/11/25 13:01:45;;;;;;;0.70;0.50;;;9.10;99.90;;;;;;5025883;28;20472;-75
2021/11/25 13:04:18;;;;;;;2.37;2.13;;;9.00;99.90;;;;;;5031023;28;20502;-75
2021/11/25 13:06:57;;;;;;;1.33;1.23;;;8.90;99.90;;;;;;5028587;28;20434;-75
2021/11/25 13:09:29;;;;;;;0.70;0.50;;;8.80;99.90;;;;;;5022596;28;20764;-75
2021/11/25 13:11:58;;;;;;;0.80;0.70;;;8.60;99.90;;;;;;5029477;28;20480;-75